Flight Track Log - Related Links

Times and Time Zones

All times are in EDT time to prevent confusion due to time zone crossing. See the PDT4236 flight status page for this flight to view local times or setup timezone preferences in your user account.

Time Position Orientation Groundspeed Altitude Reporting Facility
EDT Latitude Longitude Course Direction KTS MPH feet Rate Location/Type
Fri 04:20:00 PM 38.1895 -82.5104 174° South  Level FlightAware Approximate
Fri 04:20:30 PM 38.2717 -82.4936 170° South 167 192 4,800  Level Indianapolis Center
Fri 04:21:00 PM 38.1299 -82.5019 174° South  Level FlightAware Approximate
Fri 04:21:32 PM 38.2264 -82.4833 170° South 164 189 6,500  Level Indianapolis Center
Fri 04:22:00 PM 38.0711 -82.4870 167° South  Level FlightAware Approximate
Fri 04:22:34 PM 38.1822 -82.4469 147° Southeast 191 220 8,000  Level Indianapolis Center
Fri 04:23:00 PM 38.0126 -82.4703 167° South  Level FlightAware Approximate
Fri 04:23:36 PM 38.1603 -82.3831 114° Southeast 194 223 9,300  Level Indianapolis Center
Fri 04:24:00 PM 37.9489 -82.4598 171° South  Level FlightAware Approximate
Fri 04:24:38 PM 38.1400 -82.3178 112° Southeast 198 228 10,400  Level Indianapolis Center
Fri 04:25:40 PM 38.1053 -82.2514 124° Southeast 214 246 11,500 968 Climbing Indianapolis Center
Fri 04:26:42 PM 38.0556 -82.2206 154° Southeast 204 235 12,400 919 Climbing Indianapolis Center
Fri 04:27:44 PM 38.0036 -82.1872 153° Southeast 208 239 13,400 919 Climbing Indianapolis Center
Fri 04:28:46 PM 37.9475 -82.1542 155° Southeast 208 239 14,300 774 Climbing Indianapolis Center
Fri 04:29:48 PM 37.8942 -82.1178 152° Southeast 214 246 15,000 726 Climbing Indianapolis Center
Fri 04:30:50 PM 37.8467 -82.0683 141° Southeast 219 252 15,800 871 Climbing Indianapolis Center
Fri 04:31:52 PM 37.7939 -82.0142 141° Southeast 221 254 16,800 629 Climbing Indianapolis Center
Fri 04:32:54 PM 37.7531 -81.9556 131° Southeast 223 257 17,100 145 Climbing Indianapolis Center
Fri 04:33:56 PM 37.7208 -81.8767 117° Southeast 249 287 17,100 -48 Level Indianapolis Center
Fri 04:34:58 PM 37.6894 -81.7981 117° Southeast 251 289 17,000 -48 Descending Indianapolis Center
Fri 04:36:00 PM 37.6558 -81.7147 117° Southeast 260 299 17,000 48 Level Indianapolis Center
Fri 04:37:02 PM 37.6208 -81.6297 117° Southeast 270 311 17,100  Climbing Indianapolis Center
Fri 04:38:04 PM 37.5686 -81.5394 126° Southeast 270 311 17,000 -48 Descending Indianapolis Center
Fri 04:39:06 PM 37.5097 -81.4922 148° Southeast 263 303 17,000  Level Indianapolis Center
Fri 04:40:08 PM 37.4431 -81.4650 162° South 259 298 17,000  Level Indianapolis Center
Fri 04:41:10 PM 37.3750 -81.4636 179° South 255 293 17,000  Level Indianapolis Center
Fri 04:42:12 PM 37.2933 -81.4694 183° South 254 292 17,000  Level Indianapolis Center
Fri 04:43:14 PM 37.2283 -81.4744 184° South 254 292 17,000  Level Indianapolis Center
Fri 04:44:16 PM 37.1453 -81.4800 183° South 254 292 17,000  Level Indianapolis Center
Fri 04:44:56 PM 37.1039 -81.4989 200° South 252 290 17,000  Level Atlanta Center
Fri 04:45:56 PM 37.0333 -81.5219 195° South 246 283 17,000 -50 Level Atlanta Center
Fri 04:46:56 PM 36.9706 -81.5136 174° South 251 289 16,900 -50 Descending Atlanta Center
Fri 04:47:56 PM 36.8997 -81.5081 176° South 256 295 16,900  Level Atlanta Center
Fri 04:48:56 PM 36.8328 -81.4997 174° South 256 295 16,900  Level Atlanta Center
Fri 04:49:56 PM 36.7594 -81.4839 170° South 256 295 16,900 50 Level Atlanta Center
Fri 04:50:56 PM 36.6906 -81.4733 173° South 248 285 17,000  Climbing Atlanta Center
Fri 04:51:56 PM 36.6197 -81.4781 183° South 253 291 16,900 -150 Descending Atlanta Center
Fri 04:52:56 PM 36.5492 -81.4958 191° South 253 291 16,700 -550 Descending Atlanta Center
Fri 04:53:56 PM 36.4744 -81.5164 192° South 269 310 15,800 -900 Descending Atlanta Center
Fri 04:54:56 PM 36.3978 -81.5317 189° South 280 322 14,900 -950 Descending Atlanta Center
Fri 04:55:56 PM 36.3208 -81.5444 188° South 280 322 13,900 -950 Descending Atlanta Center
Fri 04:56:56 PM 36.2475 -81.5311 172° South 272 313 13,000 -900 Descending Atlanta Center
Fri 04:57:56 PM 36.1803 -81.5128 168° South 258 297 12,100 -900 Descending Atlanta Center
Fri 04:58:56 PM 36.1056 -81.5253 188° South 258 297 11,200 -800 Descending Atlanta Center
Fri 04:59:56 PM 36.0389 -81.5325 185° South 269 310 10,500 -800 Descending Atlanta Center
Fri 05:00:56 PM 35.9619 -81.5453 188° South 281 323 9,600 -800 Descending Atlanta Center
Fri 05:01:56 PM 35.8933 -81.5522 185° South 265 305 8,900 -424 Descending Atlanta Center
Fri 05:02:35 PM 35.8372 -81.5592 186° South 243 280 8,900  Level Atlanta Center
Fri 05:02:56 PM 35.8225 -81.5622 190° South 253 291 8,900  Level Atlanta Center
Fri 05:03:56 PM 35.7539 -81.5719 187° South 253 291 8,900  Level Atlanta Center
Fri 05:04:12 PM 35.7247 -81.5753 185° South 253 291 8,900  Level Atlanta Center
Fri 05:04:56 PM 35.6833 -81.5817 187° South 253 291 8,900  Level Atlanta Center
Fri 05:05:13 PM 35.6561 -81.5825 181° South 249 287 8,900  Level Atlanta Center
Fri 05:05:56 PM 35.6144 -81.5839 182° South 253 291 8,900  Level Atlanta Center
Fri 05:06:14 PM 35.5911 -81.5642 145° Southeast 260 299 8,900  Level Atlanta Center
Fri 05:06:56 PM 35.5631 -81.5217 129° Southeast 242 278 8,900 98 Level Atlanta Center
Fri 05:07:15 PM 35.5458 -81.4914 125° Southeast 266 306 9,000 -200 Climbing Atlanta Center
Fri 05:07:56 PM 35.5239 -81.4461 121° Southeast 257 296 8,700 -787 Descending Atlanta Center
Fri 05:08:16 PM 35.5272 -81.4028 85° East 276 318 8,200 -1,000 Descending Atlanta Center
Fri 05:08:56 PM 35.5325 -81.3567 82° East 251 289 7,700 -1,000 Descending Atlanta Center
Fri 05:09:16 PM 35.5358 -81.3131 85° East 258 297 7,200 -800 Descending Atlanta Center
Fri 05:09:56 PM 35.5431 -81.2719 78° East 256 295 6,900 -295 Descending Atlanta Center
Fri 05:10:17 PM 35.5442 -81.2311 88° East 249 287 6,900 -300 Level Atlanta Center
Fri 05:10:56 PM 35.5267 -81.1908 118° Southeast 246 283 6,600 -984 Descending Atlanta Center
Fri 05:11:18 PM 35.5133 -81.1583 117° Southeast 244 281 5,900 -1,500 Descending Atlanta Center
Fri 05:11:56 PM 35.4956 -81.1156 117° Southeast 241 277 5,100 -1,475 Descending Atlanta Center
Fri 05:12:19 PM 35.4844 -81.0803 111° Southeast 241 277 4,400 -800 Descending Atlanta Center
Fri 05:13:26 PM 35.4492 -81.0050 120° Southeast 227 261 3,900 -689 Descending Atlanta Center
Fri 05:14:21 PM 35.4025 -80.9711 149° Southeast 230 265 3,000 -517 Descending Atlanta Center
Fri 05:15:22 PM 35.3439 -80.9656 176° South 178 205 2,900 -98 Descending Atlanta Center

Login

Don't have an account? Register now (free) for customized features, flight alerts, and more!